Time;durP1;ratioP1;P1;durP2;ratioP2;P2;SDS_P1;SDS_P2;PMS_P1;PMS_P2;Temp;Humidity;BMP_temperature;BMP_pressure;BME280_temperature;BME280_humidity;BME280_pressure;Samples;Min_cycle;Max_cycle;Signal;HPM_P1;HPM_P2
2023/09/25 05:42:58;;;;;;;17.45;6.95;;;;;;;28.06;26.86;100401.71;1636216;85;22000;-91
2023/09/25 05:46:11;;;;;;;15.35;7.00;;;;;;;24.69;32.14;100980.17;1646544;85;21345;-84
2023/09/25 05:49:23;;;;;;;21.70;6.85;;;;;;;24.74;32.14;100983.05;1640251;85;21453;-93
2023/09/25 05:52:32;;;;;;;17.62;6.97;;;;;;;24.82;32.24;100985.14;1644042;85;21855;-90
2023/09/25 05:55:41;;;;;;;20.27;7.05;;;;;;;25.05;31.97;100994.75;1645870;84;21238;-84
2023/09/25 05:58:47;;;;;;;11.90;6.05;;;;;;;25.10;31.79;100983.67;1648546;85;21331;-84
2023/09/25 06:01:52;;;;;;;19.82;7.53;;;;;;;25.14;31.85;100990.45;1674175;80;54825;-84
2023/09/25 06:04:59;;;;;;;22.82;7.60;;;;;;;25.34;31.69;100990.45;1705020;82;21346;-83
2023/09/25 06:08:06;;;;;;;14.20;6.95;;;;;;;25.39;31.22;100994.73;1696914;79;21904;-85
2023/09/25 06:11:11;;;;;;;18.05;6.62;;;;;;;25.53;31.36;101000.25;1791310;77;21892;-83
2023/09/25 06:14:21;;;;;;;19.23;6.08;;;;;;;25.60;31.14;101002.32;1785996;77;21222;-85
2023/09/25 06:17:27;;;;;;;14.03;6.05;;;;;;;25.80;30.94;101002.33;1788316;78;22246;-84
2023/09/25 06:20:36;;;;;;;13.20;5.95;;;;;;;26.09;30.93;101002.39;1789782;78;21333;-84
2023/09/25 06:23:48;;;;;;;18.32;6.33;;;;;;;26.15;31.01;100999.93;1786491;78;21343;-84
2023/09/25 06:26:53;;;;;;;28.38;6.17;;;;;;;26.24;30.56;101004.52;1785749;78;22499;-85
2023/09/25 06:29:53;;;;;;;20.88;6.80;;;;;;;26.44;30.62;101010.39;1786527;78;21358;-86
2023/09/25 06:33:00;;;;;;;17.67;7.00;;;;;;;26.55;30.03;101009.09;1780260;78;21313;-84
2023/09/25 06:36:20;;;;;;;13.68;6.42;;;;;;;26.78;30.28;101013.52;1785172;78;21245;-85
2023/09/25 06:39:27;;;;;;;17.42;6.45;;;;;;;26.80;30.10;101022.50;1786768;78;22335;-85
2023/09/25 06:42:35;;;;;;;18.82;6.00;;;;;;;26.74;29.70;101021.61;1775187;78;21312;-86
2023/09/25 06:45:40;;;;;;;19.92;6.58;;;;;;;26.87;29.71;101021.73;1774838;78;21371;-85
2023/09/25 06:48:50;;;;;;;22.75;5.40;;;;;;;27.01;29.76;101017.36;1781902;77;21333;-85
2023/09/25 06:51:55;;;;;;;18.37;5.25;;;;;;;27.21;29.47;101018.09;1779385;79;21902;-85
2023/09/25 06:55:03;;;;;;;11.22;5.42;;;;;;;27.31;29.47;101018.16;1786321;77;21373;-86
2023/09/25 06:58:09;;;;;;;17.62;5.42;;;;;;;27.62;28.67;101015.52;1790075;78;21358;-86
2023/09/25 07:01:17;;;;;;;17.23;6.03;;;;;;;27.64;28.25;101017.52;1790661;77;21285;-85
2023/09/25 07:04:24;;;;;;;16.15;5.80;;;;;;;27.74;28.55;101011.97;1788190;78;21920;-84
2023/09/25 07:07:31;;;;;;;15.00;5.95;;;;;;;27.85;28.62;101015.67;1792425;78;21839;-86
2023/09/25 07:10:37;;;;;;;28.20;5.97;;;;;;;28.06;28.26;101018.02;1792161;78;21427;-87
2023/09/25 07:13:43;;;;;;;20.65;5.25;;;;;;;28.30;28.15;101019.78;1777526;79;21285;-86
2023/09/25 07:16:50;;;;;;;14.83;4.95;;;;;;;28.44;27.64;101018.99;1789133;78;21353;-86
2023/09/25 07:20:00;;;;;;;22.50;5.25;;;;;;;28.44;27.51;101016.75;1778780;79;21293;-85
2023/09/25 07:23:06;;;;;;;16.45;5.67;;;;;;;28.58;27.25;101017.89;1789432;77;21334;-85
2023/09/25 07:26:15;;;;;;;18.20;5.12;;;;;;;28.62;26.95;101025.22;1790652;77;21315;-86
2023/09/25 07:29:22;;;;;;;18.73;4.87;;;;;;;28.83;26.30;101025.50;1771178;78;21294;-86
2023/09/25 07:32:30;;;;;;;17.00;5.40;;;;;;;28.84;26.50;101024.38;1785663;78;21954;-85
2023/09/25 07:35:37;;;;;;;15.60;5.00;;;;;;;28.92;26.38;101018.75;1780656;77;21281;-84
2023/09/25 07:38:44;;;;;;;14.87;4.47;;;;;;;29.08;26.01;101023.30;1780611;77;21360;-87
2023/09/25 07:41:50;;;;;;;15.35;4.85;;;;;;;29.13;25.30;101023.30;1781699;78;21355;-86
2023/09/25 07:44:56;;;;;;;11.70;4.65;;;;;;;29.19;25.70;101024.13;1788778;78;21973;-86
2023/09/25 07:48:08;;;;;;;14.90;5.08;;;;;;;29.24;25.64;101024.12;1774584;78;21317;-87
2023/09/25 07:51:17;;;;;;;16.85;4.50;;;;;;;29.43;25.04;101029.44;1793282;77;21938;-83
2023/09/25 07:54:23;;;;;;;11.03;5.08;;;;;;;29.53;25.34;101030.81;1787962;78;21884;-85
2023/09/25 07:57:29;;;;;;;20.45;4.85;;;;;;;29.83;24.51;101031.91;1785131;78;21402;-85
2023/09/25 08:00:44;;;;;;;13.93;4.28;;;;;;;29.83;24.90;101025.39;1774475;77;21287;-85
2023/09/25 08:03:46;;;;;;;14.35;4.47;;;;;;;29.97;24.84;101026.47;1775799;79;21341;-86
2023/09/25 08:06:51;;;;;;;14.13;4.42;;;;;;;30.12;24.48;101040.52;1760084;79;21298;-84
2023/09/25 08:09:59;;;;;;;8.10;4.47;;;;;;;30.05;24.01;101031.52;1761431;79;21270;-84
2023/09/25 08:13:05;;;;;;;15.40;4.25;;;;;;;30.19;23.93;101038.25;1764543;79;21317;-86
2023/09/25 08:16:18;;;;;;;17.05;4.55;;;;;;;30.13;23.94;101032.90;1755766;78;21345;-84
2023/09/25 08:19:23;;;;;;;9.00;4.25;;;;;;;30.17;24.10;101029.81;1761198;81;21306;-84
2023/09/25 08:22:28;;;;;;;8.83;3.80;;;;;;;30.19;24.56;101034.02;1761375;79;21937;-84
2023/09/25 08:25:35;;;;;;;15.60;4.35;;;;;;;29.92;24.34;101031.56;1765193;79;21582;-86
2023/09/25 08:28:44;;;;;;;15.95;4.10;;;;;;;30.05;24.33;101023.05;1724767;80;21591;-87
2023/09/25 08:31:51;;;;;;;8.13;3.50;;;;;;;30.14;23.48;101021.92;1755146;79;22288;-86
2023/09/25 08:35:00;;;;;;;8.23;3.65;;;;;;;30.25;22.82;101023.54;1780164;77;21390;-85
2023/09/25 08:38:06;;;;;;;12.43;3.95;;;;;;;30.60;22.96;101028.13;1776584;79;21357;-85
2023/09/25 08:41:19;;;;;;;11.43;3.85;;;;;;;30.58;22.68;101026.72;1728049;81;21179;-85
2023/09/25 08:44:25;;;;;;;11.95;3.45;;;;;;;30.61;22.67;101024.17;1723752;80;22131;-84
2023/09/25 08:47:30;;;;;;;16.35;4.25;;;;;;;30.64;22.56;101013.70;1751639;79;21402;-84
2023/09/25 08:50:37;;;;;;;13.18;3.98;;;;;;;30.70;22.61;101028.05;1775647;79;21235;-83
2023/09/25 08:53:43;;;;;;;7.47;3.58;;;;;;;30.84;22.22;101016.13;1768359;79;21345;-85
2023/09/25 08:56:49;;;;;;;8.58;3.90;;;;;;;30.83;22.19;101010.22;1766088;79;21278;-85
2023/09/25 08:59:56;;;;;;;11.05;3.20;;;;;;;30.98;21.96;101013.73;1772908;77;21309;-86
2023/09/25 09:03:02;;;;;;;8.58;3.27;;;;;;;31.12;21.62;101017.30;1767329;79;21305;-86
2023/09/25 09:06:08;;;;;;;8.75;2.92;;;;;;;31.24;21.59;101014.36;1762865;79;22343;-86
2023/09/25 09:09:14;;;;;;;8.70;2.92;;;;;;;31.37;21.59;101017.64;1755532;80;22044;-86
2023/09/25 09:12:24;;;;;;;10.75;3.65;;;;;;;31.34;21.49;101019.09;1757277;79;21341;-87
2023/09/25 09:15:34;;;;;;;14.90;3.47;;;;;;;31.53;21.41;101014.94;1762379;81;21269;-86
2023/09/25 09:18:43;;;;;;;9.30;3.25;;;;;;;31.56;21.44;101021.38;1718419;81;21352;-85
2023/09/25 09:21:49;;;;;;;10.43;2.72;;;;;;;31.34;21.59;100996.48;1729676;81;21342;-85
2023/09/25 09:24:58;;;;;;;14.50;3.60;;;;;;;31.52;21.56;100997.67;1764519;80;21330;-85
2023/09/25 09:28:09;;;;;;;;;;;;;;;31.51;21.93;100996.84;1752951;80;22730;-84
2023/09/25 09:31:17;;;;;;;8.75;2.90;;;;;;;31.54;21.38;100999.08;1759720;80;20297;-85
2023/09/25 09:34:23;;;;;;;10.72;3.33;;;;;;;31.62;21.09;100996.72;1720202;80;21290;-85
2023/09/25 09:37:30;;;;;;;17.90;3.08;;;;;;;31.57;21.49;101000.44;1721209;80;22159;-85
2023/09/25 09:40:35;;;;;;;15.45;2.58;;;;;;;31.68;21.19;100983.64;1701807;80;21342;-86
2023/09/25 09:43:43;;;;;;;9.60;2.83;;;;;;;31.69;21.04;100988.16;1730925;80;21342;-85
2023/09/25 09:46:50;;;;;;;6.55;2.90;;;;;;;31.68;20.99;100992.70;1759723;80;21307;-84
2023/09/25 09:49:57;;;;;;;20.17;3.65;;;;;;;31.62;20.98;101002.37;1758984;80;21291;-86
2023/09/25 09:53:05;;;;;;;17.73;3.40;;;;;;;31.75;20.91;100988.35;1762333;79;21599;-85
2023/09/25 09:56:15;;;;;;;14.73;2.45;;;;;;;31.79;20.77;100991.42;1765812;80;21305;-86
2023/09/25 09:59:31;;;;;;;10.35;2.80;;;;;;;31.83;20.75;100994.53;1762453;80;21318;-86
2023/09/25 10:02:36;;;;;;;4.12;2.02;;;;;;;31.65;20.67;101001.78;1765805;80;21267;-85
2023/09/25 10:05:56;;;;;;;19.57;2.65;;;;;;;31.70;20.58;100987.00;1764787;80;21351;-86
2023/09/25 10:09:18;;;;;;;10.43;2.25;;;;;;;31.81;20.48;100997.06;1738489;80;22351;-86
2023/09/25 10:12:25;;;;;;;11.40;2.95;;;;;;;31.97;20.42;100991.23;1756682;79;21286;-84
2023/09/25 10:15:33;;;;;;;4.00;2.12;;;;;;;31.93;20.18;100983.08;1769271;80;21386;-85
2023/09/25 10:18:42;;;;;;;7.42;2.37;;;;;;;31.92;20.33;100987.89;1769880;79;21346;-86
2023/09/25 10:21:48;;;;;;;13.10;2.72;;;;;;;32.05;20.54;100974.42;1754432;79;21365;-86
2023/09/25 10:24:58;;;;;;;14.05;2.95;;;;;;;32.10;20.31;100980.59;1741416;80;21335;-84
2023/09/25 10:28:03;;;;;;;12.25;2.92;;;;;;;32.18;20.05;100976.21;1763766;79;21381;-84
2023/09/25 10:31:11;;;;;;;6.78;3.08;;;;;;;32.30;19.69;100969.53;1767777;79;21337;-84
2023/09/25 10:34:16;;;;;;;8.90;2.80;;;;;;;32.01;19.93;100961.19;1757627;80;21346;-90
2023/09/25 10:37:25;;;;;;;6.42;2.37;;;;;;;31.99;19.59;100969.96;1760516;80;22257;-85
2023/09/25 10:40:31;;;;;;;7.42;2.87;;;;;;;31.95;19.88;100968.91;1731222;81;21258;-85
2023/09/25 10:43:36;;;;;;;7.58;3.05;;;;;;;32.11;19.88;100962.45;1720664;80;22425;-85
2023/09/25 10:46:41;;;;;;;8.03;2.70;;;;;;;32.21;19.89;100973.63;1734732;80;21359;-86
2023/09/25 10:49:47;;;;;;;8.65;2.80;;;;;;;32.18;19.73;100961.48;1757360;80;21314;-86
2023/09/25 10:52:54;;;;;;;7.55;2.72;;;;;;;32.22;19.75;100957.48;1769438;79;21376;-86
2023/09/25 10:55:59;;;;;;;3.60;2.35;;;;;;;32.40;19.63;100962.33;1752798;79;21275;-86
2023/09/25 10:59:04;;;;;;;6.65;2.70;;;;;;;32.53;19.66;100962.97;1759808;79;21319;-85
2023/09/25 11:02:11;;;;;;;13.95;2.98;;;;;;;32.52;19.47;100953.38;1778853;78;21357;-85
2023/09/25 11:05:18;;;;;;;9.83;3.10;;;;;;;32.51;19.56;100958.75;1753074;79;21884;-85
2023/09/25 11:08:28;;;;;;;5.83;2.98;;;;;;;32.48;19.48;100950.90;1780525;77;21362;-86
2023/09/25 11:11:35;;;;;;;9.20;2.77;;;;;;;32.56;19.40;100947.38;1774193;79;21333;-85
2023/09/25 11:14:44;;;;;;;10.63;3.00;;;;;;;32.54;19.54;100946.25;1768365;79;21289;-86
2023/09/25 11:17:51;;;;;;;16.02;3.25;;;;;;;32.63;19.41;100952.05;1776076;79;21292;-86
2023/09/25 11:20:58;;;;;;;9.23;2.95;;;;;;;32.49;19.38;100935.59;1787482;77;21982;-86
2023/09/25 11:24:04;;;;;;;10.63;3.58;;;;;;;32.53;19.54;100949.39;1782178;77;21325;-86
2023/09/25 11:27:17;;;;;;;10.60;2.80;;;;;;;32.51;19.25;100931.31;1745383;80;21301;-86
2023/09/25 11:30:25;;;;;;;7.60;2.92;;;;;;;32.49;18.86;100931.34;1741099;78;21395;-86
2023/09/25 11:33:32;;;;;;;10.68;2.65;;;;;;;32.61;18.83;100933.13;1725730;80;21324;-86
2023/09/25 11:36:38;;;;;;;7.92;2.90;;;;;;;32.77;18.94;100941.61;1772283;77;21988;-86
2023/09/25 11:39:44;;;;;;;5.80;2.70;;;;;;;32.74;19.10;100936.55;1771014;79;21295;-88
2023/09/25 11:42:52;;;;;;;6.22;2.40;;;;;;;32.66;18.79;100940.12;1774272;79;21286;-87
2023/09/25 11:45:58;;;;;;;10.15;2.98;;;;;;;32.66;18.20;100928.79;1753905;78;21328;-88
2023/09/25 11:49:04;;;;;;;9.60;2.60;;;;;;;32.63;18.11;100923.73;1734667;81;21309;-86
2023/09/25 11:52:10;;;;;;;8.75;3.30;;;;;;;32.70;18.64;100931.82;1732605;81;21318;-85
2023/09/25 11:55:18;;;;;;;13.25;3.58;;;;;;;32.81;18.79;100930.51;1731657;80;22406;-86
2023/09/25 11:58:26;;;;;;;9.95;2.90;;;;;;;32.79;18.57;100929.41;1731733;80;21314;-87
2023/09/25 12:01:31;;;;;;;3.95;2.55;;;;;;;32.63;17.98;100943.55;1734975;80;21282;-87
2023/09/25 12:04:39;;;;;;;7.30;3.55;;;;;;;32.65;17.89;100938.98;1701823;81;21297;-88
2023/09/25 12:07:47;;;;;;;12.23;3.12;;;;;;;32.61;18.25;100934.55;1729887;81;21223;-86
2023/09/25 12:10:52;;;;;;;5.37;2.62;;;;;;;32.84;18.27;100936.95;1728488;81;21345;-86
2023/09/25 12:14:00;;;;;;;7.97;3.15;;;;;;;32.78;18.50;100941.03;1727692;81;21366;-87
2023/09/25 12:17:07;;;;;;;12.13;2.95;;;;;;;32.72;18.26;100930.38;1728563;81;21305;-86
2023/09/25 12:20:15;;;;;;;10.43;2.58;;;;;;;32.70;18.34;100941.19;1731242;80;21895;-85
2023/09/25 12:23:22;;;;;;;14.90;3.55;;;;;;;32.63;18.27;100935.06;1732989;81;21890;-86
2023/09/25 12:26:27;;;;;;;7.80;3.05;;;;;;;32.85;18.52;100932.16;1726957;81;21350;-86
2023/09/25 12:29:33;;;;;;;5.90;2.58;;;;;;;32.76;18.17;100930.02;1732678;81;21985;-86
2023/09/25 12:32:43;;;;;;;9.23;2.83;;;;;;;32.68;18.14;100936.39;1754089;79;21328;-86
2023/09/25 12:35:48;;;;;;;4.40;2.80;;;;;;;32.58;18.21;100946.48;1722052;81;21446;-86
2023/09/25 12:38:55;;;;;;;12.33;3.00;;;;;;;32.52;18.12;100934.41;1733676;81;21312;-86
2023/09/25 12:41:59;;;;;;;9.00;4.00;;;;;;;32.57;18.02;100946.22;1729311;80;21376;-86
2023/09/25 12:45:07;;;;;;;10.95;3.98;;;;;;;32.60;17.82;100950.41;1753651;81;21298;-86
2023/09/25 12:48:14;;;;;;;15.70;2.85;;;;;;;32.63;17.87;100951.22;1746948;81;21308;-86
2023/09/25 12:51:20;;;;;;;8.15;3.10;;;;;;;32.73;17.69;100933.47;1766196;80;22187;-86
2023/09/25 12:54:26;;;;;;;17.52;3.22;;;;;;;32.54;17.78;100934.92;1770491;81;21320;-86
2023/09/25 12:57:32;;;;;;;6.67;3.02;;;;;;;32.53;17.91;100936.66;1758566;80;21405;-85
2023/09/25 13:00:38;;;;;;;8.03;3.10;;;;;;;32.51;18.01;100942.64;1758647;79;21988;-85
2023/09/25 13:03:43;;;;;;;4.40;2.72;;;;;;;32.54;18.13;100938.33;1738199;79;21694;-84
2023/09/25 13:06:51;;;;;;;8.33;3.15;;;;;;;32.57;17.76;100951.88;1750439;81;21893;-84
2023/09/25 13:09:58;;;;;;;11.80;2.85;;;;;;;32.50;17.78;100945.75;1729483;82;22472;-85
2023/09/25 13:13:04;;;;;;;6.87;3.40;;;;;;;32.37;17.92;100940.32;1728376;82;21328;-85
2023/09/25 13:16:09;;;;;;;11.70;3.02;;;;;;;32.49;18.09;100943.50;1755946;81;21365;-84
2023/09/25 13:19:15;;;;;;;10.23;3.72;;;;;;;32.39;18.27;100949.91;1756181;79;21371;-85
2023/09/25 13:22:21;;;;;;;10.03;3.58;;;;;;;32.42;18.15;100943.06;1757280;79;21686;-84
2023/09/25 13:25:28;;;;;;;12.37;3.35;;;;;;;32.33;17.98;100954.78;1757304;81;22312;-84
2023/09/25 13:28:34;;;;;;;14.28;3.60;;;;;;;32.43;17.96;100946.73;1757705;79;21340;-85
2023/09/25 13:31:39;;;;;;;9.00;3.58;;;;;;;32.35;17.87;100955.87;1757648;80;21348;-85
2023/09/25 13:34:46;;;;;;;14.20;4.35;;;;;;;32.45;17.88;100944.42;1754510;79;21876;-87
2023/09/25 13:37:51;;;;;;;6.97;2.80;;;;;;;32.55;17.68;100938.59;1773442;80;21287;-87
2023/09/25 13:40:56;;;;;;;20.17;2.95;;;;;;;32.56;17.78;100934.05;1755370;79;21344;-87
2023/09/25 13:44:02;;;;;;;6.30;2.52;;;;;;;32.36;18.00;100940.58;1763550;79;21349;-87
2023/09/25 13:47:08;;;;;;;8.50;2.98;;;;;;;32.37;17.78;100952.19;1762700;80;21309;-87
2023/09/25 13:50:14;;;;;;;12.05;3.17;;;;;;;32.31;17.70;100949.98;1756946;79;21357;-87
2023/09/25 13:53:20;;;;;;;7.85;2.87;;;;;;;32.31;17.93;100947.99;1757085;79;21348;-87
2023/09/25 13:56:27;;;;;;;7.17;2.87;;;;;;;32.28;18.11;100952.03;1757582;79;21314;-87
2023/09/25 13:59:33;;;;;;;5.20;2.85;;;;;;;32.13;18.25;100938.93;1760225;81;21282;-87
2023/09/25 14:02:38;;;;;;;6.83;2.75;;;;;;;32.03;18.31;100955.48;1761225;79;21361;-87
2023/09/25 14:05:45;;;;;;;10.90;3.08;;;;;;;32.10;18.21;100948.63;1759617;81;21324;-87
2023/09/25 14:08:50;;;;;;;9.25;2.80;;;;;;;31.92;18.17;100958.20;1757056;79;21368;-87
2023/09/25 14:11:55;;;;;;;16.12;3.52;;;;;;;31.88;18.18;100953.45;1755001;80;21348;-87
2023/09/25 14:15:01;;;;;;;6.22;2.90;;;;;;;31.93;18.17;100954.79;1757844;79;21372;-87
2023/09/25 14:18:08;;;;;;;6.62;3.00;;;;;;;31.92;18.29;100958.77;1758509;79;21352;-87
2023/09/25 14:21:17;;;;;;;5.95;2.55;;;;;;;31.75;18.46;100962.90;1758157;79;21349;-88
2023/09/25 14:24:23;;;;;;;7.12;2.72;;;;;;;31.77;18.19;100966.28;1760309;81;21304;-87
2023/09/25 14:27:30;;;;;;;9.03;2.80;;;;;;;31.71;18.28;100954.78;1760506;79;21907;-87
2023/09/25 14:30:35;;;;;;;20.62;3.15;;;;;;;31.77;18.34;100952.14;1758399;79;21336;-87
2023/09/25 14:33:42;;;;;;;17.73;3.58;;;;;;;31.86;18.32;100961.41;1770607;79;21912;-87
2023/09/25 14:36:49;;;;;;;10.08;3.02;;;;;;;31.61;18.46;100952.05;1762528;79;21406;-88
2023/09/25 14:39:57;;;;;;;10.50;2.70;;;;;;;31.63;18.62;100958.27;1757035;79;21328;-87
2023/09/25 14:43:03;;;;;;;8.78;2.70;;;;;;;31.63;18.75;100956.85;1754638;79;22237;-87
2023/09/25 14:46:10;;;;;;;10.55;2.55;;;;;;;31.69;18.76;100955.64;1764333;79;21330;-87
2023/09/25 14:49:16;;;;;;;9.20;2.72;;;;;;;31.59;18.95;100957.18;1756952;79;21329;-87
2023/09/25 14:52:23;;;;;;;9.65;2.80;;;;;;;31.47;19.11;100963.81;1758109;79;21352;-86
2023/09/25 14:55:28;;;;;;;9.95;2.87;;;;;;;31.35;19.32;100967.08;1756876;79;21841;-87
2023/09/25 14:58:36;;;;;;;9.50;2.70;;;;;;;31.30;19.43;100969.95;1756794;79;21341;-87
2023/09/25 15:01:43;;;;;;;19.87;3.27;;;;;;;31.13;19.67;100970.95;1756705;79;21293;-87
2023/09/25 15:04:48;;;;;;;7.75;3.22;;;;;;;31.00;19.92;100971.91;1758380;79;21341;-87
2023/09/25 15:07:57;;;;;;;14.10;2.80;;;;;;;31.07;19.98;100973.56;1764235;80;21818;-87
2023/09/25 15:11:03;;;;;;;13.60;3.30;;;;;;;30.78;20.30;100978.05;1765107;79;21322;-84
2023/09/25 15:14:09;;;;;;;11.90;3.05;;;;;;;30.60;20.52;100975.91;1772536;81;21537;-85
2023/09/25 15:17:15;;;;;;;7.78;3.30;;;;;;;30.59;20.57;100979.87;1759599;81;21293;-85
2023/09/25 15:20:21;;;;;;;7.62;3.05;;;;;;;30.23;20.95;100979.27;1766256;79;22001;-85
2023/09/25 15:23:27;;;;;;;8.68;2.85;;;;;;;30.35;20.86;100977.48;1765642;80;21436;-85
2023/09/25 15:26:33;;;;;;;10.78;3.10;;;;;;;30.38;20.88;100985.38;1760167;79;21368;-85
2023/09/25 15:29:41;;;;;;;5.75;2.77;;;;;;;30.18;21.10;100988.61;1766541;80;21356;-85
2023/09/25 15:32:46;;;;;;;9.33;3.00;;;;;;;30.00;21.30;100987.83;1759852;79;21329;-85
2023/09/25 15:35:53;;;;;;;12.00;3.05;;;;;;;29.82;21.56;100988.47;1759428;81;21367;-86
2023/09/25 15:39:00;;;;;;;6.62;3.27;;;;;;;29.70;21.79;100988.81;1752847;79;21904;-86
2023/09/25 15:42:07;;;;;;;13.60;2.85;;;;;;;29.44;22.03;100988.01;1761464;79;21341;-85
2023/09/25 15:45:14;;;;;;;15.72;3.60;;;;;;;29.31;22.29;100991.42;1774200;80;21333;-85
2023/09/25 15:48:19;;;;;;;8.48;2.75;;;;;;;29.08;22.51;100987.23;1757992;79;21333;-85
2023/09/25 15:51:25;;;;;;;7.53;2.80;;;;;;;29.09;22.56;100984.72;1758413;79;21381;-85
2023/09/25 15:54:32;;;;;;;14.85;2.90;;;;;;;29.01;22.68;100984.71;1758626;79;21339;-85
2023/09/25 15:57:38;;;;;;;15.63;2.92;;;;;;;28.88;22.87;100989.47;1735601;80;21962;-85
2023/09/25 16:00:43;;;;;;;5.30;2.85;;;;;;;28.68;23.12;100994.54;1753482;79;22425;-85
2023/09/25 16:03:49;;;;;;;8.90;3.02;;;;;;;28.84;23.03;100989.18;1770445;81;21282;-85
2023/09/25 16:06:55;;;;;;;15.15;3.25;;;;;;;28.69;23.30;100992.84;1772766;79;21307;-85
2023/09/25 16:10:02;;;;;;;11.12;3.15;;;;;;;28.76;23.22;100994.83;1772881;81;21310;-85
2023/09/25 16:13:08;;;;;;;11.00;3.25;;;;;;;28.43;23.59;100995.37;1763945;79;21357;-85
2023/09/25 16:16:19;;;;;;;;;;;;;;;28.28;23.77;100997.00;1773202;79;21338;-87
2023/09/25 16:19:25;;;;;;;20.75;3.12;;;;;;;28.16;23.92;100997.80;1754266;79;20337;-87
2023/09/25 16:22:32;;;;;;;8.33;3.00;;;;;;;28.21;23.84;101002.03;1733940;82;21996;-86
2023/09/25 16:25:40;;;;;;;10.70;3.10;;;;;;;28.10;23.87;100998.07;1732843;82;21743;-87
2023/09/25 16:28:46;;;;;;;10.25;2.87;;;;;;;27.74;24.21;101007.76;1733976;82;21978;-87
2023/09/25 16:31:58;;;;;;;12.78;3.35;;;;;;;27.87;24.09;101010.63;1757819;81;21892;-85
2023/09/25 16:35:09;;;;;;;7.15;2.92;;;;;;;27.73;24.38;101014.50;1750814;80;21225;-87
2023/09/25 16:38:18;;;;;;;12.30;2.95;;;;;;;27.63;24.66;101005.44;1733043;80;21323;-87
2023/09/25 16:41:30;;;;;;;7.22;2.72;;;;;;;27.52;25.02;101007.88;1742062;80;21329;-86
2023/09/25 16:44:36;;;;;;;12.25;2.95;;;;;;;27.25;25.43;101016.44;1758387;79;21301;-86
2023/09/25 16:47:42;;;;;;;10.28;3.02;;;;;;;27.05;25.70;101019.89;1761403;79;21392;-86
2023/09/25 16:50:48;;;;;;;12.98;3.52;;;;;;;26.71;26.06;101020.17;1760292;79;21875;-86
2023/09/25 16:53:53;;;;;;;14.93;4.30;;;;;;;26.46;26.30;101019.94;1756590;79;21661;-86
2023/09/25 16:56:58;;;;;;;7.72;3.17;;;;;;;26.45;26.41;101025.27;1761090;79;21382;-87
2023/09/25 17:00:05;;;;;;;11.78;3.20;;;;;;;26.50;26.34;101029.52;1763388;79;21322;-86
2023/09/25 17:03:12;;;;;;;21.40;4.47;;;;;;;26.44;26.51;101023.55;1765688;79;21870;-87
2023/09/25 17:06:19;;;;;;;16.23;4.35;;;;;;;26.30;26.82;101030.13;1755542;79;21337;-85
2023/09/25 17:09:25;;;;;;;10.30;4.58;;;;;;;26.25;26.88;101029.52;1759933;79;21365;-85
2023/09/25 17:12:31;;;;;;;10.50;4.47;;;;;;;26.16;27.17;101038.62;1773627;80;21616;-86
2023/09/25 17:15:44;;;;;;;12.73;4.05;;;;;;;26.20;27.25;101040.64;1760039;79;21385;-86
2023/09/25 17:18:50;;;;;;;12.45;3.92;;;;;;;25.94;27.65;101041.45;1742541;80;21357;-85
2023/09/25 17:21:56;;;;;;;19.15;4.45;;;;;;;25.87;28.14;101044.44;1758667;79;21334;-85
2023/09/25 17:25:03;;;;;;;12.25;4.47;;;;;;;25.83;28.47;101048.02;1757937;79;21329;-86
2023/09/25 17:28:10;;;;;;;13.53;4.62;;;;;;;25.73;28.88;101048.14;1764892;79;21348;-86
2023/09/25 17:31:16;;;;;;;17.35;4.95;;;;;;;25.97;28.85;101049.33;1758199;80;21388;-86
2023/09/25 17:34:23;;;;;;;18.37;4.97;;;;;;;25.93;29.06;101047.62;1769183;79;21365;-86
2023/09/25 17:37:36;;;;;;;9.95;4.58;;;;;;;25.72;29.29;101050.66;1766992;80;21335;-87
2023/09/25 17:40:42;;;;;;;13.18;4.08;;;;;;;25.74;29.31;101049.86;1766375;80;21341;-85
2023/09/25 17:43:48;;;;;;;10.93;4.25;;;;;;;25.86;29.03;101048.91;1755801;79;21393;-85
2023/09/25 17:46:54;;;;;;;11.80;4.00;;;;;;;25.90;28.76;101057.09;1768278;79;21333;-86
2023/09/25 17:49:59;;;;;;;11.53;4.03;;;;;;;25.88;28.63;101056.52;1780960;80;21307;-88
2023/09/25 17:53:05;;;;;;;11.73;3.95;;;;;;;25.98;28.35;101060.85;1767740;80;21298;-87
2023/09/25 17:56:14;;;;;;;9.20;3.70;;;;;;;25.89;28.06;101056.80;1761580;79;21841;-87
2023/09/25 17:59:20;;;;;;;11.38;4.33;;;;;;;25.84;27.82;101060.95;1761320;81;21659;-87
2023/09/25 18:02:26;;;;;;;10.50;4.28;;;;;;;25.91;27.48;101061.03;1757065;79;21289;-87
2023/09/25 18:05:32;;;;;;;28.05;4.92;;;;;;;26.01;27.22;101061.71;1761479;79;21321;-87
2023/09/25 18:08:39;;;;;;;11.95;4.42;;;;;;;25.82;27.19;101064.55;1758015;81;21377;-87
2023/09/25 18:11:45;;;;;;;11.68;4.75;;;;;;;25.74;27.13;101065.83;1767909;79;21358;-87
2023/09/25 18:14:50;;;;;;;12.50;4.85;;;;;;;25.74;27.00;101065.27;1771631;80;21325;-87
2023/09/25 18:17:56;;;;;;;12.10;5.05;;;;;;;25.91;26.73;101063.83;1749108;81;21371;-87
2023/09/25 18:21:03;;;;;;;9.50;4.55;;;;;;;26.05;26.51;101067.09;1768534;80;21936;-87
2023/09/25 18:24:10;;;;;;;10.32;4.67;;;;;;;26.04;26.50;101075.22;1769135;80;21326;-87
2023/09/25 18:27:16;;;;;;;10.88;4.62;;;;;;;26.07;26.40;101074.70;1768961;81;21826;-87
2023/09/25 18:30:23;;;;;;;8.98;4.40;;;;;;;25.89;26.64;101070.27;1770255;79;21344;-86
2023/09/25 18:33:30;;;;;;;11.18;4.50;;;;;;;25.76;26.63;101075.39;1760394;81;21853;-86
2023/09/25 18:36:36;;;;;;;10.95;4.40;;;;;;;25.82;26.64;101071.55;1758160;79;21982;-86
2023/09/25 18:39:43;;;;;;;17.07;4.50;;;;;;;25.89;26.56;101073.06;1757031;79;21694;-86
2023/09/25 18:42:50;;;;;;;13.88;4.75;;;;;;;25.84;26.62;101073.00;1760203;79;21372;-86
2023/09/25 18:45:56;;;;;;;13.65;5.20;;;;;;;25.81;26.60;101069.86;1757872;79;21377;-86
2023/09/25 18:49:02;;;;;;;19.10;5.50;;;;;;;25.76;26.71;101076.80;1760006;79;21349;-86
2023/09/25 18:52:09;;;;;;;12.30;4.67;;;;;;;25.82;26.64;101082.20;1752779;80;21317;-86
2023/09/25 18:55:15;;;;;;;14.90;4.72;;;;;;;25.69;26.72;101074.16;1757769;79;21403;-87
2023/09/25 18:58:21;;;;;;;13.83;4.90;;;;;;;25.53;26.97;101072.22;1756902;79;21958;-86
2023/09/25 19:01:27;;;;;;;14.50;5.47;;;;;;;25.33;27.25;101074.16;1758605;79;21353;-86
2023/09/25 19:04:33;;;;;;;9.30;5.17;;;;;;;25.24;27.32;101073.19;1758540;79;21463;-86
2023/09/25 19:07:40;;;;;;;17.07;4.25;;;;;;;24.92;27.73;101074.28;1758676;79;21353;-86
2023/09/25 19:10:46;;;;;;;11.95;4.62;;;;;;;24.87;27.74;101070.56;1759130;79;21321;-87
2023/09/25 19:13:51;;;;;;;13.22;4.70;;;;;;;24.84;27.82;101073.84;1762129;79;21326;-87
2023/09/25 19:16:56;;;;;;;14.45;4.95;;;;;;;24.80;27.88;101067.94;1772587;80;21310;-87
2023/09/25 19:20:03;;;;;;;14.18;4.90;;;;;;;24.80;27.87;101076.33;1758787;79;21361;-86
2023/09/25 19:23:09;;;;;;;18.48;5.55;;;;;;;24.59;28.15;101075.09;1762454;80;21278;-86
2023/09/25 19:26:15;;;;;;;17.15;5.80;;;;;;;24.56;28.16;101078.92;1758108;79;22029;-86
2023/09/25 19:29:20;;;;;;;25.32;5.47;;;;;;;24.62;27.99;101082.98;1741323;81;21368;-86
2023/09/25 19:32:27;;;;;;;12.35;5.12;;;;;;;24.64;27.94;101077.13;1772462;81;21283;-86
2023/09/25 19:35:33;;;;;;;12.98;4.90;;;;;;;24.63;28.01;101082.43;1773614;81;21878;-86
2023/09/25 19:38:38;;;;;;;13.00;5.58;;;;;;;24.52;28.17;101079.16;1772048;81;21295;-87
2023/09/25 19:41:45;;;;;;;20.70;5.65;;;;;;;24.30;28.57;101085.95;1771922;81;21941;-86
2023/09/25 19:44:50;;;;;;;11.05;5.17;;;;;;;24.33;28.58;101089.66;1772359;81;22425;-86
2023/09/25 19:47:56;;;;;;;13.15;5.30;;;;;;;24.39;28.51;101083.09;1773115;81;21784;-86
2023/09/25 19:51:01;;;;;;;13.18;5.58;;;;;;;24.41;28.56;101087.87;1755888;80;21342;-86
2023/09/25 19:54:06;;;;;;;17.48;5.67;;;;;;;24.39;28.61;101093.72;1772298;81;21311;-86
2023/09/25 19:57:17;;;;;;;12.55;5.15;;;;;;;24.33;28.70;101093.84;1769384;79;21336;-86
2023/09/25 20:00:20;;;;;;;24.37;5.97;;;;;;;24.40;28.67;101088.97;1756040;79;21293;-86
2023/09/25 20:03:26;;;;;;;19.77;6.25;;;;;;;24.40;28.71;101091.77;1761420;79;21341;-87